Time;durP1;ratioP1;P1;durP2;ratioP2;P2;SDS_P1;SDS_P2;PMS_P1;PMS_P2;Temp;Humidity;BMP_temperature;BMP_pressure;BME280_temperature;BME280_humidity;BME280_pressure;Samples;Min_cycle;Max_cycle;Signal;HPM_P1;HPM_P2
2021/09/15 00:01:15;;;;;;;;;;;17.20;70.00;;;;;;5106198;28;19912;-77
2021/09/15 00:03:40;;;;;;;;;;;17.10;69.90;;;;;;5107563;28;19923;-81
2021/09/15 00:06:06;;;;;;;;;;;17.10;69.90;;;;;;5107465;28;19912;-83
2021/09/15 00:08:33;;;;;;;;;;;17.10;69.90;;;;;;5078446;28;19912;-82
2021/09/15 00:11:01;;;;;;;;;;;17.20;70.10;;;;;;5103592;28;19924;-89
2021/09/15 00:13:28;;;;;;;;;;;17.20;70.10;;;;;;5106472;28;20081;-88
2021/09/15 00:15:53;;;;;;;;;;;17.10;69.90;;;;;;5107574;28;19915;-83
2021/09/15 00:18:19;;;;;;;;;;;17.10;69.90;;;;;;5106018;28;19912;-78
2021/09/15 00:20:45;;;;;;;;;;;17.10;69.90;;;;;;5106405;28;20014;-79
2021/09/15 00:23:11;;;;;;;;;;;17.10;69.90;;;;;;5107100;28;20042;-88
2021/09/15 00:25:37;;;;;;;;;;;17.10;69.90;;;;;;5108909;28;19926;-87
2021/09/15 00:28:03;;;;;;;;;;;17.10;69.90;;;;;;5105846;28;19999;-83
2021/09/15 00:30:29;;;;;;;;;;;17.10;69.90;;;;;;5113788;28;19973;-88
2021/09/15 00:32:55;;;;;;;;;;;17.10;69.90;;;;;;5127638;27;19980;-86
2021/09/15 00:35:21;;;;;;;;;;;17.20;70.00;;;;;;5092705;28;20269;-84
2021/09/15 00:37:47;;;;;;;;;;;17.10;69.90;;;;;;5127487;28;19994;-86
2021/09/15 00:40:13;;;;;;;;;;;17.20;70.00;;;;;;5099339;28;20014;-82
2021/09/15 00:42:38;;;;;;;;;;;17.20;70.00;;;;;;5127319;28;19926;-85
2021/09/15 00:45:06;;;;;;;;;;;17.10;69.90;;;;;;5109372;28;19922;-85
2021/09/15 00:47:32;;;;;;;;;;;17.10;69.90;;;;;;5092465;28;19954;-86
2021/09/15 00:49:58;;;;;;;;;;;17.10;69.90;;;;;;5128197;28;20003;-78
2021/09/15 00:52:24;;;;;;;;;;;17.10;69.90;;;;;;5109333;28;19919;-80
2021/09/15 00:54:51;;;;;;;;;;;17.10;69.90;;;;;;5092359;28;19912;-77
2021/09/15 00:57:20;;;;;;;;;;;17.00;69.80;;;;;;5127987;28;20303;-78
2021/09/15 00:59:47;;;;;;;;;;;17.00;69.80;;;;;;5092486;28;20391;-78
2021/09/15 01:02:16;;;;;;;;;;;17.00;69.90;;;;;;5108912;28;20017;-82
2021/09/15 01:04:44;;;;;;;;;;;17.00;70.40;;;;;;5108966;28;19915;-83
2021/09/15 01:07:11;;;;;;;;;;;17.00;69.90;;;;;;5109089;28;19919;-83
2021/09/15 01:09:38;;;;;;;;;;;17.00;69.90;;;;;;5089920;28;20821;-86
2021/09/15 01:12:12;;;;;;;;;;;17.00;70.00;;;;;;5072385;28;19924;-79
2021/09/15 01:15:07;;;;;;;;;;;16.90;69.80;;;;;;5130217;27;20496;-79
2021/09/15 01:17:52;;;;;;;;;;;16.90;69.80;;;;;;5108564;28;19923;-81
2021/09/15 01:20:44;;;;;;;;;;;16.90;70.40;;;;;;5094940;28;19946;-81
2021/09/15 01:23:36;;;;;;;;;;;16.90;69.90;;;;;;5108532;28;19962;-78
2021/09/15 01:26:17;;;;;;;;;;;16.80;69.80;;;;;;5108484;28;20388;-79
2021/09/15 01:28:59;;;;;;;;;;;16.80;70.30;;;;;;5108479;28;19919;-78
2021/09/15 01:31:25;;;;;;;;;;;16.80;69.80;;;;;;5104207;28;19920;-81
2021/09/15 01:33:51;;;;;;;;;;;16.80;69.90;;;;;;5089936;28;19915;-78
2021/09/15 01:36:17;;;;;;;;;;;16.70;69.80;;;;;;5106758;28;20357;-77
2021/09/15 01:38:46;;;;;;;;;;;16.70;69.80;;;;;;5108644;28;19957;-78
2021/09/15 01:41:14;;;;;;;;;;;16.60;69.60;;;;;;5102147;28;19916;-77
2021/09/15 01:43:50;;;;;;;;;;;16.60;69.70;;;;;;5111814;27;19923;-79
2021/09/15 01:46:17;;;;;;;;;;;16.60;69.70;;;;;;5107565;22;20358;-80
2021/09/15 01:48:43;;;;;;;;;;;16.60;69.70;;;;;;5095474;28;19912;-81
2021/09/15 01:51:09;;;;;;;;;;;16.50;69.60;;;;;;5077707;28;19920;-80
2021/09/15 01:53:34;;;;;;;;;;;16.50;69.60;;;;;;5095464;28;19912;-82
2021/09/15 01:56:00;;;;;;;;;;;16.50;69.60;;;;;;5093466;28;19939;-77
2021/09/15 01:58:40;;;;;;;;;;;16.40;69.50;;;;;;5093415;28;20409;-80
2021/09/15 02:01:29;;;;;;;;;;;16.30;69.40;;;;;;5079169;28;20371;-79
2021/09/15 02:04:24;;;;;;;;;;;16.30;69.40;;;;;;5084312;28;19912;-81
2021/09/15 02:07:13;;;;;;;;;;;16.30;69.50;;;;;;5086058;28;19925;-79
2021/09/15 02:10:00;;;;;;;;;;;16.20;69.40;;;;;;5063742;28;19916;-81
2021/09/15 02:12:26;;;;;;;;;;;16.20;69.50;;;;;;5091404;28;19938;-79
2021/09/15 02:14:51;;;;;;;;;;;16.20;69.50;;;;;;5097932;28;19954;-77
2021/09/15 02:17:17;;;;;;;;;;;16.20;69.60;;;;;;5093512;28;20434;-79
2021/09/15 02:19:46;;;;;;;;;;;16.10;69.40;;;;;;5092380;28;20034;-80
2021/09/15 02:22:41;;;;;;;;;;;16.10;69.50;;;;;;5083557;28;19924;-76
2021/09/15 02:25:13;;;;;;;;;;;16.10;69.50;;;;;;5092613;28;19919;-79
2021/09/15 02:28:15;;;;;;;;;;;16.10;69.50;;;;;;5050315;28;20512;-80
2021/09/15 02:30:58;;;;;;;;;;;16.00;69.40;;;;;;5071931;28;19927;-78
2021/09/15 02:33:44;;;;;;;;;;;16.00;69.40;;;;;;5084928;28;19912;-82
2021/09/15 02:36:20;;;;;;;;;;;15.90;69.30;;;;;;5076804;28;20371;-80
2021/09/15 02:39:24;;;;;;;;;;;16.00;69.50;;;;;;5058901;28;19996;-81
2021/09/15 02:41:55;;;;;;;;;;;15.90;69.40;;;;;;5048680;28;19912;-80
2021/09/15 02:44:30;;;;;;;;;;;15.90;69.40;;;;;;5098694;28;19912;-78
2021/09/15 02:47:12;;;;;;;;;;;15.90;69.50;;;;;;5101389;28;20375;-78
2021/09/15 02:50:13;;;;;;;;;;;15.80;69.30;;;;;;5092757;28;19981;-80
2021/09/15 02:53:05;;;;;;;;;;;15.80;69.30;;;;;;5095714;28;19912;-80
2021/09/15 02:55:34;;;;;;;;;;;15.70;69.20;;;;;;5113104;28;19955;-77
2021/09/15 02:58:19;;;;;;;;;;;15.70;69.20;;;;;;5112668;28;19965;-79
2021/09/15 03:00:50;;;;;;;;;;;15.70;69.30;;;;;;5112349;28;19916;-80
2021/09/15 03:03:33;;;;;;;;;;;15.70;69.30;;;;;;5112105;28;20395;-80
2021/09/15 03:06:05;;;;;;;;;;;15.60;69.10;;;;;;5095824;28;20302;-80
2021/09/15 03:08:54;;;;;;;;;;;15.60;69.20;;;;;;5107168;28;19930;-79
2021/09/15 03:11:20;;;;;;;;;;;15.60;69.30;;;;;;5089729;28;19927;-78
2021/09/15 03:13:46;;;;;;;;;;;15.50;69.10;;;;;;5110304;28;19912;-79
2021/09/15 03:16:14;;;;;;;;;;;15.50;69.20;;;;;;5078280;28;19916;-81
2021/09/15 03:18:41;;;;;;;;;;;15.50;69.20;;;;;;5111236;28;20000;-80
2021/09/15 03:21:07;;;;;;;;;;;15.50;69.20;;;;;;5111430;28;20255;-79
2021/09/15 03:23:34;;;;;;;;;;;15.50;69.20;;;;;;5095048;28;19912;-81
2021/09/15 03:26:00;;;;;;;;;;;15.40;69.10;;;;;;5093959;28;19922;-77
2021/09/15 03:28:29;;;;;;;;;;;15.50;69.30;;;;;;5113034;28;19943;-80
2021/09/15 03:30:55;;;;;;;;;;;15.50;69.30;;;;;;5111504;28;20002;-81
2021/09/15 03:33:21;;;;;;;;;;;15.40;69.10;;;;;;5094901;28;19925;-79
2021/09/15 03:35:48;;;;;;;;;;;15.40;69.10;;;;;;5093909;28;19912;-80
2021/09/15 03:38:14;;;;;;;;;;;15.40;69.10;;;;;;5094460;28;20010;-81
2021/09/15 03:40:41;;;;;;;;;;;15.40;69.10;;;;;;5110474;28;20286;-80
2021/09/15 03:43:07;;;;;;;;;;;15.40;69.10;;;;;;5104140;28;19948;-82
2021/09/15 03:45:33;;;;;;;;;;;15.40;69.10;;;;;;5111109;28;20325;-80
2021/09/15 03:47:59;;;;;;;;;;;15.40;69.10;;;;;;5093636;28;20276;-79
2021/09/15 03:50:26;;;;;;;;;;;15.40;69.10;;;;;;5110470;28;19953;-79
2021/09/15 03:52:52;;;;;;;;;;;15.30;69.00;;;;;;5110976;28;20331;-81
2021/09/15 03:55:18;;;;;;;;;;;15.30;69.00;;;;;;5111009;28;20017;-82
2021/09/15 03:57:44;;;;;;;;;;;15.30;69.00;;;;;;5112136;28;19916;-82
2021/09/15 04:00:12;;;;;;;;;;;15.30;69.00;;;;;;5110250;28;19911;-78
2021/09/15 04:02:40;;;;;;;;;;;15.20;68.90;;;;;;5111855;28;19916;-79
2021/09/15 04:05:11;;;;;;;;;;;15.20;68.90;;;;;;5110578;28;19911;-80
2021/09/15 04:07:39;;;;;;;;;;;15.20;68.90;;;;;;5093546;28;19923;-82
2021/09/15 04:10:06;;;;;;;;;;;15.20;69.00;;;;;;5110711;28;19966;-82
2021/09/15 04:12:32;;;;;;;;;;;15.10;68.80;;;;;;5110968;28;20264;-80
2021/09/15 04:14:58;;;;;;;;;;;15.10;68.80;;;;;;5085070;28;19912;-79
2021/09/15 04:17:24;;;;;;;;;;;15.10;68.90;;;;;;5110868;28;19912;-84
2021/09/15 04:19:52;;;;;;;;;;;15.00;68.70;;;;;;5093814;28;20002;-82
2021/09/15 04:22:20;;;;;;;;;;;15.00;68.80;;;;;;5093832;28;19958;-80
2021/09/15 04:32:42;;;;;;;;;;;14.90;68.70;;;;;;5110896;28;20320;-79
2021/09/15 04:35:09;;;;;;;;;;;14.90;68.80;;;;;;5093289;28;19973;-80
2021/09/15 04:37:36;;;;;;;;;;;14.90;68.80;;;;;;5104228;28;19971;-80
2021/09/15 04:40:02;;;;;;;;;;;14.80;68.60;;;;;;5116840;28;20511;-77
2021/09/15 04:42:29;;;;;;;;;;;14.80;68.60;;;;;;5130294;28;19937;-82
2021/09/15 04:44:57;;;;;;;;;;;14.80;68.70;;;;;;5102149;28;19931;-78
2021/09/15 04:47:22;;;;;;;;;;;14.80;68.70;;;;;;5107831;28;21014;-79
2021/09/15 04:49:49;;;;;;;;;;;14.80;68.70;;;;;;5072879;28;20363;-79
2021/09/15 04:52:15;;;;;;;;;;;14.80;68.70;;;;;;5085086;28;19920;-80
2021/09/15 04:54:42;;;;;;;;;;;14.80;68.70;;;;;;5090556;28;19915;-77
2021/09/15 04:57:08;;;;;;;;;;;14.70;68.60;;;;;;5101942;28;19938;-80
2021/09/15 04:59:36;;;;;;;;;;;14.70;68.60;;;;;;5087982;28;20010;-80
2021/09/15 05:02:02;;;;;;;;;;;14.70;68.60;;;;;;5092550;28;19964;-80
2021/09/15 05:04:28;;;;;;;;;;;14.70;68.60;;;;;;5103145;28;20006;-80
2021/09/15 05:07:13;;;;;;;;;;;14.70;68.70;;;;;;5094729;28;19957;-80
2021/09/15 05:09:39;;;;;;;;;;;14.70;68.70;;;;;;5069893;28;19959;-79
2021/09/15 05:12:06;;;;;;;;;;;14.70;68.70;;;;;;5096415;28;19920;-81
2021/09/15 05:14:32;;;;;;;;;;;14.60;68.50;;;;;;5109730;28;20224;-82
2021/09/15 05:16:58;;;;;;;;;;;14.60;68.50;;;;;;5092573;28;19911;-79
2021/09/15 05:19:24;;;;;;;;;;;14.60;68.60;;;;;;5094975;28;19957;-81
2021/09/15 05:21:50;;;;;;;;;;;14.60;68.60;;;;;;5092897;28;19926;-80
2021/09/15 05:24:16;;;;;;;;;;;14.60;69.10;;;;;;5109610;28;20149;-79
2021/09/15 05:26:42;;;;;;;;;;;14.60;68.60;;;;;;5109102;28;20330;-79
2021/09/15 05:29:08;;;;;;;;;;;14.60;68.60;;;;;;5086094;28;19920;-80
2021/09/15 05:31:34;;;;;;;;;;;14.60;68.60;;;;;;5071469;28;19947;-79
2021/09/15 05:34:00;;;;;;;;;;;14.60;68.60;;;;;;5071414;28;20128;-78
2021/09/15 05:36:26;;;;;;;;;;;14.60;68.60;;;;;;5089982;28;19995;-78
2021/09/15 05:38:52;;;;;;;;;;;14.50;68.50;;;;;;5102903;28;20338;-79
2021/09/15 05:41:25;;;;;;;;;;;14.50;68.50;;;;;;5081472;28;20339;-78
2021/09/15 05:43:52;;;;;;;;;;;14.60;68.60;;;;;;5105784;28;20013;-79
2021/09/15 05:46:21;;;;;;;;;;;14.50;68.50;;;;;;5092400;28;19928;-79
2021/09/15 05:48:48;;;;;;;;;;;14.50;68.50;;;;;;5107477;28;19935;-78
2021/09/15 05:51:17;;;;;;;;;;;14.50;68.50;;;;;;5095983;28;20495;-78
2021/09/15 05:53:47;;;;;;;;;;;14.50;68.50;;;;;;5095672;28;20069;-79
2021/09/15 05:56:13;;;;;;;;;;;14.50;68.50;;;;;;5105383;28;19909;-80
2021/09/15 05:58:39;;;;;;;;;;;14.50;68.50;;;;;;5091378;28;20006;-80
2021/09/15 06:01:07;;;;;;;;;;;14.40;68.40;;;;;;5092159;28;19919;-81
2021/09/15 06:03:34;;;;;;;;;;;14.50;68.60;;;;;;5081796;28;20018;-82
2021/09/15 06:06:09;;;;;;;;;;;14.40;68.50;;;;;;5105138;28;19964;-80
2021/09/15 06:08:35;;;;;;;;;;;14.50;68.80;;;;;;5091429;28;20115;-82
2021/09/15 06:11:01;;;;;;;;;;;14.50;68.90;;;;;;5094480;28;20287;-80
2021/09/15 06:13:27;;;;;;;;;;;14.50;68.90;;;;;;5087660;28;19920;-81
2021/09/15 06:15:52;;;;;;;;;;;14.50;68.80;;;;;;5084600;28;20018;-81
2021/09/15 06:18:19;;;;;;;;;;;14.50;68.80;;;;;;5098189;28;19916;-82
2021/09/15 06:21:18;;;;;;;;;;;14.60;69.00;;;;;;5080446;28;19916;-80
2021/09/15 06:24:22;;;;;;;;;;;14.60;68.90;;;;;;5031210;28;20271;-80
2021/09/15 06:26:51;;;;;;;;;;;14.70;69.00;;;;;;5044103;28;20298;-79
2021/09/15 06:29:17;;;;;;;;;;;14.60;68.80;;;;;;5049367;28;19912;-79
2021/09/15 06:31:43;;;;;;;;;;;14.70;68.90;;;;;;5081773;28;20243;-82
2021/09/15 06:34:09;;;;;;;;;;;14.70;68.90;;;;;;5091149;28;19911;-81
2021/09/15 06:36:37;;;;;;;;;;;14.70;68.90;;;;;;5101875;28;20370;-81
2021/09/15 06:39:03;;;;;;;;;;;14.80;69.00;;;;;;5093486;28;20192;-82
2021/09/15 06:41:29;;;;;;;;;;;14.80;69.00;;;;;;5091801;28;19912;-83
2021/09/15 06:43:55;;;;;;;;;;;14.90;69.10;;;;;;5086204;28;19912;-83
2021/09/15 06:46:22;;;;;;;;;;;14.90;69.00;;;;;;5087382;28;19967;-79
2021/09/15 06:48:49;;;;;;;;;;;14.90;69.00;;;;;;5102960;28;19999;-83
2021/09/15 06:51:16;;;;;;;;;;;15.00;69.10;;;;;;5106976;28;20358;-81
2021/09/15 06:53:41;;;;;;;;;;;14.90;68.90;;;;;;5106128;28;19947;-82
2021/09/15 06:56:09;;;;;;;;;;;15.00;69.10;;;;;;5107037;28;19911;-81
2021/09/15 06:58:36;;;;;;;;;;;15.00;69.00;;;;;;5089823;28;19931;-81
2021/09/15 07:01:04;;;;;;;;;;;15.00;69.00;;;;;;5107892;28;19915;-81
2021/09/15 07:03:30;;;;;;;;;;;15.00;68.90;;;;;;5090149;28;19919;-81
2021/09/15 07:05:56;;;;;;;;;;;15.10;69.10;;;;;;5106232;28;19916;-79
2021/09/15 07:08:22;;;;;;;;;;;15.10;69.00;;;;;;5106505;28;19912;-84
2021/09/15 07:10:48;;;;;;;;;;;15.20;69.10;;;;;;5088927;28;19945;-81
2021/09/15 07:13:13;;;;;;;;;;;15.20;69.10;;;;;;5095035;28;19912;-81
2021/09/15 07:15:39;;;;;;;;;;;15.20;69.10;;;;;;5069057;28;20264;-81
2021/09/15 07:18:06;;;;;;;;;;;15.30;69.20;;;;;;5090762;28;20321;-82
2021/09/15 07:20:32;;;;;;;;;;;15.30;69.10;;;;;;5086852;28;20349;-81
2021/09/15 07:22:58;;;;;;;;;;;15.40;69.20;;;;;;5069275;28;19916;-78
2021/09/15 07:25:24;;;;;;;;;;;15.50;69.30;;;;;;5086749;28;19916;-80
2021/09/15 07:27:50;;;;;;;;;;;15.50;69.20;;;;;;5091743;28;19912;-81
2021/09/15 07:30:16;;;;;;;;;;;15.60;69.30;;;;;;5089642;28;20226;-81
2021/09/15 07:32:42;;;;;;;;;;;15.60;69.20;;;;;;5108418;28;20035;-79
2021/09/15 07:35:10;;;;;;;;;;;15.80;69.50;;;;;;5127480;28;19949;-78
2021/09/15 07:37:36;;;;;;;;;;;15.80;69.40;;;;;;5097300;28;19915;-80
2021/09/15 07:40:04;;;;;;;;;;;15.90;69.50;;;;;;5116035;28;19916;-80
2021/09/15 07:42:29;;;;;;;;;;;15.90;69.40;;;;;;5106196;28;20015;-80
2021/09/15 07:44:55;;;;;;;;;;;16.00;69.50;;;;;;5071911;28;19924;-79
2021/09/15 07:47:21;;;;;;;;;;;16.10;69.60;;;;;;5092047;28;19958;-79
2021/09/15 07:49:47;;;;;;;;;;;16.30;69.90;;;;;;5099993;28;19912;-78
2021/09/15 07:52:13;;;;;;;;;;;16.30;69.80;;;;;;5089735;28;20019;-80
2021/09/15 07:54:39;;;;;;;;;;;16.50;70.10;;;;;;5106742;28;19942;-80
2021/09/15 07:57:06;;;;;;;;;;;16.60;70.10;;;;;;5086573;28;20351;-79
2021/09/15 07:59:31;;;;;;;;;;;16.70;70.10;;;;;;5098665;28;19927;-82
2021/09/15 08:01:58;;;;;;;;;;;16.80;70.20;;;;;;5088894;28;19983;-82
2021/09/15 08:04:24;;;;;;;;;;;17.00;70.40;;;;;;5092291;28;19915;-83
2021/09/15 08:06:49;;;;;;;;;;;17.10;70.50;;;;;;5097042;28;20252;-80
2021/09/15 08:09:15;;;;;;;;;;;17.20;70.50;;;;;;5106782;28;20320;-81
2021/09/15 08:11:41;;;;;;;;;;;17.30;70.60;;;;;;5106929;28;20278;-81
2021/09/15 08:14:07;;;;;;;;;;;17.40;70.70;;;;;;5070470;28;19935;-81
2021/09/15 08:16:33;;;;;;;;;;;17.40;70.50;;;;;;5102260;28;20175;-82
2021/09/15 08:19:01;;;;;;;;;;;17.60;70.80;;;;;;5104372;28;19976;-81
2021/09/15 08:21:28;;;;;;;;;;;17.70;70.80;;;;;;5107423;28;20343;-79
2021/09/15 08:23:54;;;;;;;;;;;17.80;70.90;;;;;;5089372;28;19999;-80
2021/09/15 08:26:20;;;;;;;;;;;17.90;71.00;;;;;;5068701;28;20298;-80
2021/09/15 08:28:46;;;;;;;;;;;18.00;71.10;;;;;;5068718;28;19916;-81
2021/09/15 08:31:12;;;;;;;;;;;18.00;71.00;;;;;;5085086;28;20133;-80
2021/09/15 08:33:38;;;;;;;;;;;18.10;71.10;;;;;;5078197;28;19993;-81
2021/09/15 08:36:04;;;;;;;;;;;18.20;71.20;;;;;;5086233;28;19991;-80
2021/09/15 08:38:30;;;;;;;;;;;18.30;71.30;;;;;;5068726;28;19912;-80
2021/09/15 08:40:56;;;;;;;;;;;18.30;71.20;;;;;;5085547;28;20002;-80
2021/09/15 08:43:22;;;;;;;;;;;18.40;71.30;;;;;;5068379;28;20252;-81
2021/09/15 08:45:48;;;;;;;;;;;18.50;71.40;;;;;;5068872;28;19916;-80
2021/09/15 08:48:21;;;;;;;;;;;18.60;71.40;;;;;;5093838;28;19926;-80
2021/09/15 08:50:49;;;;;;;;;;;18.70;71.50;;;;;;5089276;28;19955;-81
2021/09/15 08:53:16;;;;;;;;;;;18.80;71.50;;;;;;5088909;28;20340;-83
2021/09/15 08:55:46;;;;;;;;;;;18.80;71.50;;;;;;5089177;28;19923;-80
2021/09/15 08:58:15;;;;;;;;;;;18.80;71.50;;;;;;5088562;28;19920;-81
2021/09/15 09:00:41;;;;;;;;;;;18.80;71.50;;;;;;5090597;28;19920;-83
2021/09/15 09:03:07;;;;;;;;;;;18.80;71.60;;;;;;5072539;28;19919;-84
2021/09/15 09:22:57;;;;;;;30.88;26.08;;;24.80;71.20;;;;;;5124271;27;20379;-59
2021/09/15 09:25:24;;;;;;;30.88;26.75;;;25.20;68.80;;;;;;5109392;27;20020;-66
2021/09/15 09:29:52;;;;;;;36.78;26.95;;;24.70;68.10;;;;;;5063358;27;20408;-73
2021/09/15 09:32:19;;;;;;;30.60;26.70;;;24.10;68.00;;;;;;5044493;28;20029;-75
2021/09/15 09:34:50;;;;;;;35.40;29.23;;;23.50;68.20;;;;;;5044955;28;20086;-73
2021/09/15 09:37:21;;;;;;;30.27;27.00;;;23.00;68.50;;;;;;5061458;28;20140;-74
2021/09/15 09:39:57;;;;;;;33.33;28.75;;;22.50;68.70;;;;;;5058320;28;20033;-74
2021/09/15 09:42:31;;;;;;;33.58;29.65;;;22.20;69.10;;;;;;5045669;28;20135;-74
2021/09/15 09:45:06;;;;;;;33.88;30.17;;;21.80;69.10;;;;;;5029428;28;20033;-74
2021/09/15 09:47:35;;;;;;;34.85;29.25;;;21.60;69.40;;;;;;5044540;28;20046;-74
2021/09/15 09:50:01;;;;;;;34.92;29.50;;;21.40;69.50;;;;;;5063363;28;20376;-73
2021/09/15 09:52:27;;;;;;;35.22;30.42;;;21.40;69.80;;;;;;5062351;28;20040;-73
2021/09/15 09:55:04;;;;;;;33.88;30.05;;;21.40;70.00;;;;;;5061614;28;20029;-73
2021/09/15 09:57:30;;;;;;;33.75;29.30;;;21.40;70.10;;;;;;5062511;28;20111;-74
2021/09/15 09:59:57;;;;;;;37.00;29.38;;;21.40;70.10;;;;;;5063082;28;20043;-73
2021/09/15 10:02:24;;;;;;;37.47;30.77;;;21.40;70.00;;;;;;5062355;28;20036;-74
2021/09/15 10:04:50;;;;;;;36.22;30.98;;;21.50;70.20;;;;;;5041427;28;20535;-73
2021/09/15 10:07:16;;;;;;;35.08;29.38;;;21.50;70.10;;;;;;5042316;28;20526;-74
2021/09/15 10:09:45;;;;;;;37.83;30.20;;;21.50;70.00;;;;;;5042096;28;20037;-73
2021/09/15 10:12:12;;;;;;;36.05;30.15;;;21.40;69.70;;;;;;5024342;28;20506;-73
2021/09/15 10:14:39;;;;;;;37.97;29.65;;;21.40;69.60;;;;;;5041463;28;20033;-73
2021/09/15 10:17:10;;;;;;;34.25;28.98;;;21.40;69.50;;;;;;5042568;28;20416;-75
2021/09/15 10:19:45;;;;;;;33.75;29.40;;;21.40;69.50;;;;;;5035816;28;20458;-74
2021/09/15 10:22:11;;;;;;;32.15;27.98;;;21.40;69.30;;;;;;5036256;28;20333;-73
2021/09/15 10:24:52;;;;;;;34.03;28.92;;;21.50;69.40;;;;;;5042591;28;20498;-74
2021/09/15 10:27:21;;;;;;;33.65;26.90;;;21.60;69.50;;;;;;5042349;28;20032;-73
2021/09/15 10:30:07;;;;;;;34.33;28.38;;;21.60;69.30;;;;;;5037001;28;20499;-73
2021/09/15 10:32:35;;;;;;;33.90;28.75;;;21.60;69.20;;;;;;5040868;28;20029;-73
2021/09/15 10:35:03;;;;;;;31.02;26.60;;;21.60;69.10;;;;;;5040403;28;20100;-74
2021/09/15 10:37:32;;;;;;;33.50;27.00;;;21.60;69.00;;;;;;5042166;28;20396;-73
2021/09/15 10:40:09;;;;;;;33.08;27.50;;;21.70;69.10;;;;;;5035093;28;20556;-74
2021/09/15 10:45:14;;;;;;;31.95;27.17;;;21.60;68.90;;;;;;5027162;28;20037;-73
2021/09/15 10:47:42;;;;;;;32.45;28.75;;;21.60;68.80;;;;;;5028029;28;20396;-73
2021/09/15 10:50:09;;;;;;;32.88;27.17;;;21.60;68.80;;;;;;5027803;28;20352;-73
2021/09/15 10:52:43;;;;;;;30.70;26.48;;;21.60;68.80;;;;;;5027893;28;20091;-73
2021/09/15 10:55:18;;;;;;;31.17;25.88;;;21.70;68.90;;;;;;5009381;28;20029;-73
2021/09/15 10:57:45;;;;;;;29.88;25.58;;;21.70;68.80;;;;;;5009967;28;20040;-73
2021/09/15 11:00:18;;;;;;;26.00;22.98;;;21.80;68.90;;;;;;5028426;28;20030;-74
2021/09/15 11:02:49;;;;;;;30.77;26.67;;;21.80;69.00;;;;;;5023632;28;20155;-74
2021/09/15 11:05:27;;;;;;;29.05;24.52;;;21.80;69.10;;;;;;5017848;28;20080;-73
2021/09/15 11:08:02;;;;;;;31.45;26.23;;;21.90;69.30;;;;;;5024326;28;20040;-73
2021/09/15 11:10:38;;;;;;;29.25;24.33;;;21.90;69.40;;;;;;5028140;28;20076;-74
2021/09/15 11:13:08;;;;;;;30.40;25.05;;;22.00;69.60;;;;;;5026670;28;20036;-73
2021/09/15 11:15:46;;;;;;;25.73;21.75;;;22.00;69.50;;;;;;5026423;28;20064;-74
2021/09/15 11:18:33;;;;;;;28.33;23.75;;;22.10;69.60;;;;;;5027689;28;20034;-73
2021/09/15 11:21:03;;;;;;;27.83;22.02;;;22.20;69.70;;;;;;5027630;28;20435;-73
2021/09/15 11:23:30;;;;;;;30.55;21.15;;;22.20;69.70;;;;;;5027786;28;20068;-74
2021/09/15 11:25:58;;;;;;;26.98;21.45;;;22.30;69.70;;;;;;5027899;28;20492;-74
2021/09/15 11:28:25;;;;;;;22.60;19.27;;;22.30;69.50;;;;;;5027305;28;20514;-73
2021/09/15 11:30:51;;;;;;;25.52;20.27;;;22.40;69.40;;;;;;5027507;28;20388;-73
2021/09/15 11:33:36;;;;;;;23.50;19.42;;;22.40;69.30;;;;;;5026404;28;20083;-74
2021/09/15 11:36:05;;;;;;;22.08;18.92;;;22.50;69.50;;;;;;5025734;28;20041;-74
2021/09/15 11:38:34;;;;;;;21.17;18.15;;;22.60;69.40;;;;;;5026193;28;20428;-73
2021/09/15 11:41:08;;;;;;;21.20;17.50;;;22.70;69.10;;;;;;5026046;28;20040;-74
2021/09/15 11:43:38;;;;;;;21.63;16.55;;;22.80;69.00;;;;;;5026050;28;20067;-74
2021/09/15 11:46:04;;;;;;;18.45;16.02;;;22.90;68.90;;;;;;5028103;28;20431;-73
2021/09/15 11:48:32;;;;;;;20.05;16.00;;;22.90;68.60;;;;;;5009411;28;20399;-73
2021/09/15 11:50:59;;;;;;;17.48;15.43;;;23.00;68.50;;;;;;5026954;28;20025;-74
2021/09/15 11:53:27;;;;;;;19.60;15.18;;;22.90;68.20;;;;;;5024835;28;20096;-73
2021/09/15 11:56:02;;;;;;;17.00;15.23;;;22.90;68.10;;;;;;5009820;28;20037;-73
2021/09/15 11:58:28;;;;;;;18.05;14.95;;;22.80;67.70;;;;;;5008986;28;20053;-73
2021/09/15 12:00:55;;;;;;;15.50;13.25;;;22.80;67.80;;;;;;5026228;28;20388;-73
2021/09/15 12:03:27;;;;;;;17.73;14.70;;;22.80;67.70;;;;;;5026888;28;20029;-74
2021/09/15 12:05:57;;;;;;;17.45;13.68;;;22.80;67.60;;;;;;5026423;28;20150;-73
2021/09/15 12:08:24;;;;;;;15.63;13.50;;;22.70;67.50;;;;;;5026159;28;20482;-74
2021/09/15 12:10:54;;;;;;;16.90;14.30;;;22.70;67.30;;;;;;5025818;28;20495;-73
2021/09/15 12:13:31;;;;;;;15.30;13.82;;;22.70;67.30;;;;;;5025728;28;20029;-73
2021/09/15 12:15:58;;;;;;;15.57;13.10;;;22.70;67.30;;;;;;5026660;28;20088;-73
2021/09/15 12:18:39;;;;;;;14.45;12.77;;;22.70;67.20;;;;;;5026464;28;20029;-74
2021/09/15 12:21:17;;;;;;;14.82;13.43;;;22.70;67.10;;;;;;5027577;28;20476;-73
2021/09/15 12:23:43;;;;;;;14.82;13.18;;;22.70;66.90;;;;;;5028696;28;20025;-73
2021/09/15 12:26:10;;;;;;;16.98;12.75;;;22.70;67.00;;;;;;5042634;28;20037;-73
2021/09/15 12:28:36;;;;;;;13.43;11.80;;;22.70;66.90;;;;;;5043494;28;20242;-74
2021/09/15 12:31:04;;;;;;;13.40;12.10;;;22.80;67.10;;;;;;5027119;28;20139;-73
2021/09/15 12:33:36;;;;;;;14.30;12.65;;;22.80;67.10;;;;;;5026475;28;20124;-73
2021/09/15 12:36:17;;;;;;;13.50;12.15;;;22.80;67.00;;;;;;5026190;28;20025;-73
2021/09/15 12:38:57;;;;;;;13.15;11.15;;;22.80;66.90;;;;;;5025888;28;20069;-73
2021/09/15 12:41:25;;;;;;;12.88;11.57;;;22.80;66.70;;;;;;5007157;28;20034;-73
2021/09/15 12:44:23;;;;;;;13.90;11.82;;;22.90;66.70;;;;;;5022715;28;20299;-74
2021/09/15 12:46:52;;;;;;;11.93;10.73;;;22.90;66.50;;;;;;5025872;28;20036;-73
2021/09/15 12:49:35;;;;;;;11.80;10.60;;;22.90;66.40;;;;;;5026333;28;20037;-72
2021/09/15 12:52:17;;;;;;;12.20;11.00;;;23.00;66.40;;;;;;5026164;28;20050;-72
2021/09/15 12:54:55;;;;;;;12.60;10.85;;;23.00;66.20;;;;;;5005656;28;20045;-72
2021/09/15 12:57:27;;;;;;;13.30;11.93;;;23.00;66.10;;;;;;5022115;28;20109;-72
2021/09/15 12:59:53;;;;;;;11.57;10.38;;;23.10;66.20;;;;;;5025044;28;20033;-72
2021/09/15 13:02:29;;;;;;;12.40;11.05;;;23.10;66.10;;;;;;5025059;28;20029;-72
2021/09/15 13:04:58;;;;;;;12.02;10.82;;;23.20;66.20;;;;;;5026498;28;20391;-72
2021/09/15 13:07:24;;;;;;;12.25;11.05;;;23.30;66.20;;;;;;5026190;28;20124;-73
2021/09/15 13:09:50;;;;;;;13.63;12.27;;;23.30;66.00;;;;;;5025886;28;20037;-73
2021/09/15 13:12:19;;;;;;;12.20;11.10;;;23.40;66.10;;;;;;5025805;28;20234;-72
2021/09/15 13:14:49;;;;;;;11.68;10.57;;;23.40;65.80;;;;;;5026092;28;20033;-74
2021/09/15 13:17:16;;;;;;;14.10;12.68;;;23.50;66.00;;;;;;5026175;28;20025;-73
2021/09/15 13:19:42;;;;;;;12.70;11.40;;;23.60;65.90;;;;;;5025893;28;20038;-72
2021/09/15 13:22:09;;;;;;;12.77;11.50;;;23.70;65.90;;;;;;5025778;28;20040;-72
2021/09/15 13:24:35;;;;;;;12.93;11.60;;;23.80;65.80;;;;;;5025637;28;20033;-72
2021/09/15 13:27:03;;;;;;;13.77;12.38;;;23.80;65.60;;;;;;5026135;28;20034;-73
2021/09/15 13:29:30;;;;;;;14.70;11.02;;;23.90;65.50;;;;;;5025182;28;20087;-72
2021/09/15 13:31:56;;;;;;;12.10;11.00;;;24.00;65.50;;;;;;5024939;28;20475;-72
2021/09/15 13:34:22;;;;;;;10.98;9.98;;;24.10;65.50;;;;;;5025449;28;20500;-72
2021/09/15 13:36:48;;;;;;;13.52;11.15;;;24.10;65.30;;;;;;5026018;28;20033;-72
2021/09/15 13:39:13;;;;;;;11.38;10.27;;;24.30;65.50;;;;;;5025687;28;20060;-73
2021/09/15 13:41:39;;;;;;;11.27;10.30;;;24.40;65.50;;;;;;5023480;28;20025;-72
2021/09/15 13:44:06;;;;;;;13.05;11.85;;;24.50;65.50;;;;;;5022875;28;20071;-72
2021/09/15 13:46:33;;;;;;;12.43;11.23;;;24.60;65.40;;;;;;5025380;28;20121;-72
2021/09/15 13:48:59;;;;;;;12.50;11.20;;;24.70;65.40;;;;;;5024972;28;20399;-72
2021/09/15 13:51:25;;;;;;;12.35;10.55;;;24.80;65.40;;;;;;5026168;28;20040;-73
2021/09/15 13:53:51;;;;;;;12.75;10.85;;;24.90;65.40;;;;;;5025307;28;20017;-72
2021/09/15 13:56:17;;;;;;;11.32;10.23;;;25.00;65.40;;;;;;5024005;28;20074;-74
2021/09/15 13:58:43;;;;;;;11.38;10.27;;;25.20;65.40;;;;;;5023691;28;20033;-74
2021/09/15 14:01:09;;;;;;;11.15;10.15;;;25.30;65.30;;;;;;5023137;28;20029;-73
2021/09/15 14:03:35;;;;;;;12.15;10.88;;;25.40;65.20;;;;;;5024045;28;20029;-73
2021/09/15 14:06:01;;;;;;;11.70;10.32;;;25.50;65.30;;;;;;5026166;28;20052;-74
2021/09/15 14:08:27;;;;;;;12.45;10.63;;;25.60;65.20;;;;;;5024100;28;20045;-74
2021/09/15 14:10:53;;;;;;;12.43;11.13;;;25.70;65.00;;;;;;5025728;28;20080;-75
2021/09/15 14:13:19;;;;;;;12.07;10.88;;;25.70;64.80;;;;;;5025039;28;20454;-74
2021/09/15 14:15:45;;;;;;;12.52;11.23;;;25.80;64.70;;;;;;5017895;28;20030;-73
2021/09/15 14:18:11;;;;;;;12.88;11.57;;;25.90;64.60;;;;;;5024162;28;20029;-73